Time;durP1;ratioP1;P1;durP2;ratioP2;P2;SDS_P1;SDS_P2;PMS_P1;PMS_P2;Temp;Humidity;BMP_temperature;BMP_pressure;BME280_temperature;BME280_humidity;BME280_pressure;Samples;Min_cycle;Max_cycle;Signal;HPM_P1;HPM_P2
2021/11/21 00:02:21;;;;;;;21.47;15.13;;;;;;;;;;4945203;29;20228;-77
2021/11/21 00:05:26;;;;;;;19.87;14.73;;;;;;;;;;4947389;29;20555;-77
2021/11/21 00:08:30;;;;;;;23.33;15.73;;;;;;;;;;4953004;29;20558;-78
2021/11/21 00:11:34;;;;;;;21.83;15.13;;;;;;;;;;4952837;29;20233;-77
2021/11/21 00:14:38;;;;;;;23.67;15.70;;;;;;;;;;4963739;29;20188;-77
2021/11/21 00:17:42;;;;;;;22.33;15.37;;;;;;;;;;4962846;29;20206;-78
2021/11/21 00:20:47;;;;;;;22.63;15.40;;;;;;;;;;4942206;29;20710;-78
2021/11/21 00:23:51;;;;;;;22.60;15.20;;;;;;;;;;4963238;29;20219;-78
2021/11/21 00:26:56;;;;;;;21.73;14.23;;;;;;;;;;4952015;29;20206;-77
2021/11/21 00:29:59;;;;;;;24.03;15.43;;;;;;;;;;4952769;29;20195;-77
2021/11/21 00:33:06;;;;;;;24.40;15.53;;;;;;;;;;4962842;29;20539;-78
2021/11/21 00:36:11;;;;;;;25.03;15.37;;;;;;;;;;4952434;29;20183;-77
2021/11/21 00:39:15;;;;;;;24.97;16.00;;;;;;;;;;4952422;29;20581;-77
2021/11/21 00:42:20;;;;;;;25.87;16.30;;;;;;;;;;4963747;29;20219;-78
2021/11/21 00:45:25;;;;;;;25.93;16.60;;;;;;;;;;4940589;29;20206;-77
2021/11/21 00:48:30;;;;;;;27.87;17.37;;;;;;;;;;4951001;29;20566;-77
2021/11/21 00:51:35;;;;;;;25.53;16.23;;;;;;;;;;4951873;29;20228;-77
2021/11/21 00:54:54;;;;;;;21.93;15.47;;;;;;;;;;4961822;29;20548;-77
2021/11/21 00:57:58;;;;;;;25.17;16.03;;;;;;;;;;4929448;29;20207;-77
2021/11/21 01:01:05;;;;;;;21.87;14.73;;;;;;;;;;4949977;29;20221;-77
2021/11/21 01:04:09;;;;;;;21.53;14.20;;;;;;;;;;4962158;29;20203;-77
2021/11/21 01:07:13;;;;;;;22.63;14.93;;;;;;;;;;4950616;29;20202;-77
2021/11/21 01:10:20;;;;;;;21.53;14.37;;;;;;;;;;4950441;29;20185;-77
2021/11/21 01:13:25;;;;;;;22.50;14.87;;;;;;;;;;4961122;29;20199;-77
2021/11/21 01:16:30;;;;;;;24.97;15.10;;;;;;;;;;4961981;29;20183;-77
2021/11/21 01:19:34;;;;;;;24.07;15.80;;;;;;;;;;4951227;29;20195;-77
2021/11/21 01:22:38;;;;;;;21.83;14.63;;;;;;;;;;4961908;29;20229;-77
2021/11/21 01:25:44;;;;;;;22.23;14.90;;;;;;;;;;4962068;29;20543;-77
2021/11/21 01:28:48;;;;;;;23.03;15.43;;;;;;;;;;4961633;29;20220;-77
2021/11/21 01:31:52;;;;;;;25.20;16.30;;;;;;;;;;4962784;29;20241;-77
2021/11/21 01:34:57;;;;;;;20.90;13.67;;;;;;;;;;4962345;29;20184;-77
2021/11/21 01:38:03;;;;;;;23.53;14.77;;;;;;;;;;4950687;29;20184;-77
2021/11/21 01:41:08;;;;;;;24.13;14.97;;;;;;;;;;4956389;29;20234;-76
2021/11/21 01:44:14;;;;;;;25.07;15.93;;;;;;;;;;4954816;29;20210;-76
2021/11/21 01:47:19;;;;;;;25.87;15.77;;;;;;;;;;4955265;29;20200;-77
2021/11/21 01:50:36;;;;;;;24.10;15.30;;;;;;;;;;4934806;29;20188;-77
2021/11/21 01:53:39;;;;;;;26.60;15.47;;;;;;;;;;4945999;29;20195;-77
2021/11/21 01:56:45;;;;;;;24.30;15.60;;;;;;;;;;4935417;29;20199;-77
2021/11/21 01:59:50;;;;;;;27.63;15.10;;;;;;;;;;4938034;29;20195;-77
2021/11/21 02:02:54;;;;;;;26.17;15.77;;;;;;;;;;4962236;29;20193;-77
2021/11/21 02:06:00;;;;;;;23.93;14.67;;;;;;;;;;4960771;29;20183;-77
2021/11/21 02:09:05;;;;;;;23.63;14.97;;;;;;;;;;4961363;29;20218;-77
2021/11/21 02:12:10;;;;;;;18.37;12.50;;;;;;;;;;4939049;29;20595;-77
2021/11/21 02:15:16;;;;;;;17.67;12.10;;;;;;;;;;4938800;29;20194;-77
2021/11/21 02:18:22;;;;;;;17.67;11.47;;;;;;;;;;4950229;29;20202;-77
2021/11/21 02:21:27;;;;;;;16.60;11.30;;;;;;;;;;4950188;29;20650;-77
2021/11/21 02:24:31;;;;;;;16.10;11.43;;;;;;;;;;4960759;29;20236;-77
2021/11/21 02:27:37;;;;;;;15.83;10.63;;;;;;;;;;4963384;29;20199;-77
2021/11/21 02:30:42;;;;;;;16.10;10.53;;;;;;;;;;4941761;28;20649;-77
2021/11/21 02:33:49;;;;;;;13.20;9.70;;;;;;;;;;4951318;29;20196;-77
2021/11/21 02:36:53;;;;;;;13.90;9.83;;;;;;;;;;4959171;29;20970;-77
2021/11/21 02:39:57;;;;;;;12.27;9.30;;;;;;;;;;4966130;29;20184;-77
2021/11/21 02:43:02;;;;;;;12.60;9.17;;;;;;;;;;4964212;29;20187;-77
2021/11/21 02:46:06;;;;;;;11.70;8.47;;;;;;;;;;4933840;29;20200;-77
2021/11/21 02:49:11;;;;;;;12.70;9.37;;;;;;;;;;4935760;29;20552;-78
2021/11/21 02:52:15;;;;;;;11.90;9.03;;;;;;;;;;4946378;29;20224;-77
2021/11/21 02:55:24;;;;;;;11.63;8.80;;;;;;;;;;4935221;29;20545;-77
2021/11/21 02:58:32;;;;;;;13.53;9.10;;;;;;;;;;4945245;29;20548;-77
2021/11/21 03:01:36;;;;;;;11.33;8.43;;;;;;;;;;4933905;29;20623;-77
2021/11/21 03:04:40;;;;;;;10.80;8.07;;;;;;;;;;4945963;29;20611;-78
2021/11/21 03:07:46;;;;;;;11.97;8.17;;;;;;;;;;4934904;29;20544;-77
2021/11/21 03:10:51;;;;;;;12.40;8.93;;;;;;;;;;4944353;29;20624;-77
2021/11/21 03:13:57;;;;;;;11.77;9.03;;;;;;;;;;4934268;29;20607;-77
2021/11/21 03:17:01;;;;;;;11.20;7.97;;;;;;;;;;4934188;29;20612;-77
2021/11/21 03:20:07;;;;;;;11.93;8.77;;;;;;;;;;4946079;29;20557;-77
2021/11/21 03:23:11;;;;;;;11.83;8.97;;;;;;;;;;4947212;29;20579;-77
2021/11/21 03:26:15;;;;;;;12.90;9.03;;;;;;;;;;4963703;29;20603;-77
2021/11/21 03:29:20;;;;;;;13.20;9.17;;;;;;;;;;4952705;29;21145;-77
2021/11/21 03:32:24;;;;;;;11.73;8.83;;;;;;;;;;4937970;29;20634;-77
2021/11/21 03:35:28;;;;;;;12.30;9.00;;;;;;;;;;4940645;29;20588;-77
2021/11/21 03:38:32;;;;;;;14.17;10.07;;;;;;;;;;4945312;29;20540;-77
2021/11/21 03:41:38;;;;;;;13.20;9.77;;;;;;;;;;4934069;29;20664;-77
2021/11/21 03:44:43;;;;;;;13.30;9.17;;;;;;;;;;4945830;29;20596;-77
2021/11/21 03:47:48;;;;;;;13.60;9.57;;;;;;;;;;4936063;29;20587;-77
2021/11/21 03:50:53;;;;;;;14.77;10.20;;;;;;;;;;4944597;29;20628;-77
2021/11/21 03:53:57;;;;;;;13.47;10.23;;;;;;;;;;4961236;29;20587;-77
2021/11/21 03:57:01;;;;;;;14.00;10.03;;;;;;;;;;4941409;29;20565;-77
2021/11/21 04:00:09;;;;;;;14.27;10.37;;;;;;;;;;4963068;29;20551;-77
2021/11/21 04:03:17;;;;;;;15.80;10.70;;;;;;;;;;4963618;29;20560;-77
2021/11/21 04:06:22;;;;;;;13.00;10.13;;;;;;;;;;4964930;29;20616;-77
2021/11/21 04:09:26;;;;;;;13.43;9.57;;;;;;;;;;4962780;29;20614;-77
2021/11/21 04:12:31;;;;;;;14.43;10.47;;;;;;;;;;4963302;29;20215;-77
2021/11/21 04:15:35;;;;;;;16.80;11.43;;;;;;;;;;4963724;29;20568;-77
2021/11/21 04:18:39;;;;;;;16.83;11.03;;;;;;;;;;4964243;29;20574;-78
2021/11/21 04:21:44;;;;;;;15.73;11.30;;;;;;;;;;4951755;28;20631;-77
2021/11/21 04:24:48;;;;;;;15.83;11.27;;;;;;;;;;4963375;29;20603;-78
2021/11/21 04:27:52;;;;;;;14.23;10.83;;;;;;;;;;4962650;29;20559;-77
2021/11/21 04:30:57;;;;;;;16.43;11.07;;;;;;;;;;4932767;29;20990;-77
2021/11/21 04:34:00;;;;;;;15.77;11.13;;;;;;;;;;4943388;29;20929;-78
2021/11/21 04:37:05;;;;;;;17.27;11.70;;;;;;;;;;4944552;29;20598;-77
2021/11/21 04:40:11;;;;;;;17.37;11.70;;;;;;;;;;4961632;29;20637;-77
2021/11/21 04:43:15;;;;;;;14.40;10.57;;;;;;;;;;4939469;29;20630;-77
2021/11/21 04:46:20;;;;;;;16.37;11.90;;;;;;;;;;4947709;29;20662;-77
2021/11/21 04:49:24;;;;;;;15.77;11.20;;;;;;;;;;4937553;29;20555;-77
2021/11/21 04:52:28;;;;;;;17.73;11.40;;;;;;;;;;4938441;29;20644;-77
2021/11/21 04:55:34;;;;;;;18.97;12.23;;;;;;;;;;4931299;29;20586;-77
2021/11/21 04:58:38;;;;;;;15.23;10.97;;;;;;;;;;4956492;29;20625;-77
2021/11/21 05:01:42;;;;;;;16.27;11.33;;;;;;;;;;4950801;28;20654;-77
2021/11/21 05:04:46;;;;;;;17.00;11.43;;;;;;;;;;4937441;29;20611;-77
2021/11/21 05:07:51;;;;;;;16.50;11.63;;;;;;;;;;4937521;29;20561;-77
2021/11/21 05:10:55;;;;;;;17.93;12.00;;;;;;;;;;4937562;29;20638;-77
2021/11/21 05:14:01;;;;;;;18.67;12.77;;;;;;;;;;4944685;29;20588;-77
2021/11/21 05:17:06;;;;;;;18.27;12.07;;;;;;;;;;4948934;29;21166;-77
2021/11/21 05:20:13;;;;;;;17.67;11.60;;;;;;;;;;4938208;29;20539;-77
2021/11/21 05:23:17;;;;;;;20.67;13.33;;;;;;;;;;4938581;29;20552;-77
2021/11/21 05:26:22;;;;;;;18.67;12.50;;;;;;;;;;4937193;29;20603;-76
2021/11/21 05:29:27;;;;;;;18.53;12.73;;;;;;;;;;4938632;29;20553;-77
2021/11/21 05:32:32;;;;;;;18.50;13.07;;;;;;;;;;4938472;29;20742;-77
2021/11/21 05:35:36;;;;;;;19.40;12.87;;;;;;;;;;4941655;29;20554;-77
2021/11/21 05:38:40;;;;;;;20.70;13.43;;;;;;;;;;4940796;29;20551;-76
2021/11/21 05:41:44;;;;;;;18.20;12.57;;;;;;;;;;4940643;29;21217;-76
2021/11/21 05:44:48;;;;;;;19.23;13.20;;;;;;;;;;4940887;29;20555;-77
2021/11/21 05:47:52;;;;;;;17.17;12.30;;;;;;;;;;4940966;29;20557;-77
2021/11/21 05:50:57;;;;;;;16.40;11.67;;;;;;;;;;4951400;28;20653;-77
2021/11/21 05:54:01;;;;;;;17.03;12.27;;;;;;;;;;4960422;29;20550;-77
2021/11/21 05:57:06;;;;;;;16.83;12.17;;;;;;;;;;4959818;29;20589;-77
2021/11/21 06:00:13;;;;;;;18.47;12.63;;;;;;;;;;4946487;29;20950;-77
2021/11/21 06:03:17;;;;;;;21.20;13.77;;;;;;;;;;4959515;29;20595;-77
2021/11/21 06:06:22;;;;;;;17.63;13.27;;;;;;;;;;4953461;29;20995;-77
2021/11/21 06:09:26;;;;;;;16.73;12.63;;;;;;;;;;4941315;29;20552;-77
2021/11/21 06:12:31;;;;;;;18.23;13.13;;;;;;;;;;4941284;29;20634;-77
2021/11/21 06:15:35;;;;;;;18.37;13.37;;;;;;;;;;4941237;29;21094;-77
2021/11/21 06:18:39;;;;;;;18.80;12.93;;;;;;;;;;4949016;29;20624;-76
2021/11/21 06:21:43;;;;;;;19.47;12.93;;;;;;;;;;4960705;29;20643;-77
2021/11/21 06:24:48;;;;;;;17.87;12.77;;;;;;;;;;4959257;29;20556;-77
2021/11/21 06:27:52;;;;;;;18.40;12.57;;;;;;;;;;4943063;29;20582;-77
2021/11/21 06:30:56;;;;;;;17.87;13.10;;;;;;;;;;4948211;29;20629;-77
2021/11/21 06:34:00;;;;;;;19.03;11.93;;;;;;;;;;4959264;29;20631;-77
2021/11/21 06:37:07;;;;;;;63.67;41.40;;;;;;;;;;4928989;29;20594;-77
2021/11/21 06:40:12;;;;;;;30.23;21.83;;;;;;;;;;4941135;29;20545;-77
2021/11/21 06:43:16;;;;;;;17.87;13.60;;;;;;;;;;4939643;29;20556;-77
2021/11/21 06:46:20;;;;;;;17.57;12.37;;;;;;;;;;4953718;28;20673;-77
2021/11/21 06:49:24;;;;;;;18.13;12.80;;;;;;;;;;4958120;29;20607;-77
2021/11/21 06:52:30;;;;;;;18.90;12.83;;;;;;;;;;4959082;28;20630;-77
2021/11/21 06:55:34;;;;;;;18.13;12.40;;;;;;;;;;4935301;29;20590;-77
2021/11/21 06:58:38;;;;;;;19.37;13.87;;;;;;;;;;4957582;29;20604;-77
2021/11/21 07:01:42;;;;;;;18.83;12.77;;;;;;;;;;4926817;29;20709;-77
2021/11/21 07:04:49;;;;;;;18.73;12.40;;;;;;;;;;4957397;29;20606;-76
2021/11/21 07:07:53;;;;;;;18.40;12.77;;;;;;;;;;4940910;29;20609;-78
2021/11/21 07:10:57;;;;;;;18.83;12.87;;;;;;;;;;4956580;28;20627;-77
2021/11/21 07:14:02;;;;;;;18.67;13.67;;;;;;;;;;4940052;29;20623;-78
2021/11/21 07:17:06;;;;;;;19.47;12.90;;;;;;;;;;4932006;29;20599;-77
2021/11/21 07:20:15;;;;;;;18.73;12.87;;;;;;;;;;4948210;29;20630;-77
2021/11/21 07:23:21;;;;;;;17.73;13.23;;;;;;;;;;4942587;29;20622;-77
2021/11/21 07:26:25;;;;;;;17.07;12.47;;;;;;;;;;4952031;29;20649;-76
2021/11/21 07:29:29;;;;;;;18.47;12.87;;;;;;;;;;4955946;29;20586;-76
2021/11/21 07:32:33;;;;;;;15.60;11.57;;;;;;;;;;4955110;29;20653;-75
2021/11/21 07:35:37;;;;;;;19.53;12.43;;;;;;;;;;4955882;29;20598;-75
2021/11/21 07:38:42;;;;;;;18.73;13.33;;;;;;;;;;4952627;29;20606;-76
2021/11/21 07:41:47;;;;;;;17.97;12.87;;;;;;;;;;4952365;29;20629;-76
2021/11/21 07:44:51;;;;;;;17.57;12.40;;;;;;;;;;4952395;29;20603;-76
2021/11/21 07:47:55;;;;;;;17.67;12.10;;;;;;;;;;4952097;29;20610;-75
2021/11/21 07:51:00;;;;;;;18.90;12.97;;;;;;;;;;4952590;29;20629;-76
2021/11/21 07:54:05;;;;;;;20.33;12.70;;;;;;;;;;4952978;29;21192;-75
2021/11/21 07:57:09;;;;;;;18.83;13.00;;;;;;;;;;4951820;28;20606;-76
2021/11/21 08:00:14;;;;;;;19.13;12.20;;;;;;;;;;4933994;29;21242;-77
2021/11/21 08:03:18;;;;;;;19.30;12.80;;;;;;;;;;4940999;29;20626;-74
2021/11/21 08:06:23;;;;;;;22.90;14.47;;;;;;;;;;4940792;29;20633;-74
2021/11/21 08:09:27;;;;;;;21.70;15.10;;;;;;;;;;4940654;29;20638;-74
2021/11/21 08:12:31;;;;;;;23.13;13.93;;;;;;;;;;4951498;29;21266;-74
2021/11/21 08:15:37;;;;;;;20.13;13.70;;;;;;;;;;4951304;29;20579;-74
2021/11/21 08:18:41;;;;;;;18.57;13.17;;;;;;;;;;4952355;29;20970;-74
2021/11/21 08:21:45;;;;;;;21.87;15.13;;;;;;;;;;4938069;29;20657;-74
2021/11/21 08:24:51;;;;;;;18.27;12.73;;;;;;;;;;4951634;29;21121;-75
2021/11/21 08:27:55;;;;;;;31.87;18.30;;;;;;;;;;4952020;29;20598;-74
2021/11/21 08:30:59;;;;;;;32.53;19.77;;;;;;;;;;4941848;29;20658;-74
2021/11/21 08:34:03;;;;;;;40.57;23.17;;;;;;;;;;4933123;29;20575;-74
2021/11/21 08:37:07;;;;;;;47.03;25.63;;;;;;;;;;4945655;29;20638;-74
2021/11/21 08:40:12;;;;;;;24.13;14.87;;;;;;;;;;4950777;29;20602;-74
2021/11/21 08:43:16;;;;;;;18.03;12.37;;;;;;;;;;4944672;29;20939;-74
2021/11/21 08:46:20;;;;;;;18.17;11.57;;;;;;;;;;4951325;29;20235;-74
2021/11/21 08:49:24;;;;;;;15.83;10.87;;;;;;;;;;4949459;29;20618;-74
2021/11/21 08:52:28;;;;;;;19.23;12.53;;;;;;;;;;4941272;29;20670;-74
2021/11/21 08:55:33;;;;;;;20.27;12.57;;;;;;;;;;4931662;29;21437;-74
2021/11/21 08:58:37;;;;;;;16.83;10.50;;;;;;;;;;4938103;29;20202;-74
2021/11/21 09:01:42;;;;;;;17.63;11.47;;;;;;;;;;4946976;29;21678;-74
2021/11/21 09:04:46;;;;;;;142.50;56.77;;;;;;;;;;4948783;29;20204;-74
2021/11/21 09:07:50;;;;;;;42.43;24.37;;;;;;;;;;4931634;29;20622;-74
2021/11/21 09:10:55;;;;;;;20.40;12.87;;;;;;;;;;4932483;29;20663;-74
2021/11/21 09:13:59;;;;;;;23.97;12.53;;;;;;;;;;4937377;29;20202;-74
2021/11/21 09:17:03;;;;;;;16.90;11.60;;;;;;;;;;4951271;29;20719;-76
2021/11/21 09:20:08;;;;;;;19.30;12.77;;;;;;;;;;4950752;29;21263;-75
2021/11/21 09:23:13;;;;;;;19.70;12.83;;;;;;;;;;4943289;29;20606;-75
2021/11/21 09:26:17;;;;;;;20.80;12.73;;;;;;;;;;4949944;29;20226;-74
2021/11/21 09:29:21;;;;;;;20.87;13.60;;;;;;;;;;4936425;29;20203;-74
2021/11/21 09:32:25;;;;;;;22.87;14.77;;;;;;;;;;4951228;29;20235;-74
2021/11/21 09:35:30;;;;;;;25.90;15.63;;;;;;;;;;4951768;29;20551;-74
2021/11/21 09:38:34;;;;;;;27.23;17.10;;;;;;;;;;4951065;29;20194;-73
2021/11/21 09:41:39;;;;;;;25.20;15.40;;;;;;;;;;4932284;29;20611;-74
2021/11/21 09:44:43;;;;;;;24.83;15.63;;;;;;;;;;4943662;29;20606;-74
2021/11/21 09:47:54;;;;;;;30.13;16.57;;;;;;;;;;4950558;29;20594;-74
2021/11/21 09:51:00;;;;;;;28.50;17.17;;;;;;;;;;4938948;29;20226;-74
2021/11/21 09:54:04;;;;;;;32.27;18.30;;;;;;;;;;4950454;29;20209;-74
2021/11/21 09:57:08;;;;;;;39.83;23.00;;;;;;;;;;4950381;29;20195;-77
2021/11/21 10:00:15;;;;;;;25.03;16.03;;;;;;;;;;4950776;29;20208;-77
2021/11/21 10:03:20;;;;;;;26.97;15.67;;;;;;;;;;4931490;29;20925;-77
2021/11/21 10:06:36;;;;;;;33.20;20.07;;;;;;;;;;4945005;29;20642;-77
2021/11/21 10:09:41;;;;;;;19.90;12.13;;;;;;;;;;4951458;29;20602;-76
2021/11/21 10:12:45;;;;;;;18.70;11.67;;;;;;;;;;4946007;29;20246;-76
2021/11/21 10:15:49;;;;;;;24.77;14.30;;;;;;;;;;4941794;29;20211;-77
2021/11/21 10:18:58;;;;;;;22.17;12.67;;;;;;;;;;4932448;29;20659;-77
2021/11/21 10:22:03;;;;;;;21.00;12.23;;;;;;;;;;4938409;29;20226;-76
2021/11/21 10:25:07;;;;;;;22.60;12.73;;;;;;;;;;4946845;29;20203;-77
2021/11/21 10:28:21;;;;;;;24.03;14.70;;;;;;;;;;4954427;29;20693;-77
2021/11/21 10:31:29;;;;;;;21.23;13.00;;;;;;;;;;4954229;29;20586;-77
2021/11/21 10:34:33;;;;;;;23.83;13.80;;;;;;;;;;4924509;29;20199;-77
2021/11/21 10:37:39;;;;;;;21.43;12.77;;;;;;;;;;4923766;29;20210;-77
2021/11/21 10:40:44;;;;;;;21.37;13.77;;;;;;;;;;4954036;29;20567;-76
2021/11/21 10:44:02;;;;;;;22.90;13.10;;;;;;;;;;4954475;29;20570;-76
2021/11/21 10:47:06;;;;;;;23.53;13.77;;;;;;;;;;4949137;29;20238;-77
2021/11/21 10:50:14;;;;;;;23.27;13.97;;;;;;;;;;4953295;29;20194;-77
2021/11/21 10:53:19;;;;;;;21.43;12.93;;;;;;;;;;4953556;29;20176;-76
2021/11/21 10:56:24;;;;;;;24.33;15.17;;;;;;;;;;4941920;29;20211;-77
2021/11/21 10:59:48;;;;;;;24.17;14.17;;;;;;;;;;4953713;29;20543;-76
2021/11/21 11:02:53;;;;;;;24.30;14.83;;;;;;;;;;4942188;29;20923;-76
2021/11/21 11:05:57;;;;;;;27.50;16.47;;;;;;;;;;4949745;29;20199;-77
2021/11/21 11:09:22;;;;;;;30.50;17.50;;;;;;;;;;4942339;29;20192;-76
2021/11/21 11:12:26;;;;;;;26.60;15.40;;;;;;;;;;4951909;29;20230;-76
2021/11/21 11:15:33;;;;;;;26.53;14.23;;;;;;;;;;4941830;29;20599;-77
2021/11/21 11:18:37;;;;;;;21.80;13.67;;;;;;;;;;4953763;29;20196;-76
2021/11/21 11:21:47;;;;;;;19.23;12.30;;;;;;;;;;4953101;29;20725;-77
2021/11/21 11:24:55;;;;;;;18.97;12.20;;;;;;;;;;4953407;29;20210;-76
2021/11/21 11:28:25;;;;;;;20.30;12.57;;;;;;;;;;4952635;29;20227;-77
2021/11/21 11:31:35;;;;;;;22.07;13.27;;;;;;;;;;4953105;28;20234;-77
2021/11/21 11:34:40;;;;;;;29.10;17.50;;;;;;;;;;4951008;29;20195;-77
2021/11/21 11:37:47;;;;;;;26.77;15.57;;;;;;;;;;4953597;29;20198;-77
2021/11/21 11:41:03;;;;;;;23.00;14.77;;;;;;;;;;4941961;29;20238;-77
2021/11/21 11:44:07;;;;;;;39.03;20.93;;;;;;;;;;4952641;29;20209;-78
2021/11/21 11:47:25;;;;;;;20.33;12.50;;;;;;;;;;4952462;29;20242;-77
2021/11/21 11:50:46;;;;;;;22.77;14.03;;;;;;;;;;4952466;28;20203;-77
2021/11/21 11:53:55;;;;;;;22.00;11.63;;;;;;;;;;4933922;29;20559;-78
2021/11/21 11:57:04;;;;;;;35.83;21.50;;;;;;;;;;4933891;29;20184;-77
2021/11/21 12:00:28;;;;;;;24.93;13.07;;;;;;;;;;4923108;29;20187;-78
2021/11/21 12:03:40;;;;;;;22.93;12.73;;;;;;;;;;4922732;29;20685;-78
2021/11/21 12:06:50;;;;;;;21.83;13.30;;;;;;;;;;4951043;29;20199;-78
2021/11/21 12:09:58;;;;;;;22.63;13.67;;;;;;;;;;4941896;29;20274;-78
2021/11/21 12:13:08;;;;;;;24.80;14.23;;;;;;;;;;4953659;29;20211;-78
2021/11/21 12:16:16;;;;;;;24.20;13.97;;;;;;;;;;4941847;29;20185;-78
2021/11/21 12:19:42;;;;;;;22.37;13.53;;;;;;;;;;4952557;29;20191;-77
2021/11/21 12:22:46;;;;;;;22.77;13.37;;;;;;;;;;4941125;29;20578;-77
2021/11/21 12:25:50;;;;;;;21.47;13.17;;;;;;;;;;4922489;29;20197;-77
2021/11/21 12:28:57;;;;;;;22.57;14.03;;;;;;;;;;4922010;29;20220;-77
2021/11/21 12:32:24;;;;;;;24.43;15.27;;;;;;;;;;4931968;29;20223;-77
2021/11/21 12:35:37;;;;;;;27.67;15.07;;;;;;;;;;4939959;29;20550;-76
2021/11/21 12:38:41;;;;;;;32.37;18.90;;;;;;;;;;4940775;29;20199;-77
2021/11/21 12:42:09;;;;;;;24.63;15.37;;;;;;;;;;4922017;28;20227;-77
2021/11/21 12:45:19;;;;;;;21.73;12.80;;;;;;;;;;4936727;29;20210;-76
2021/11/21 12:48:25;;;;;;;23.93;12.30;;;;;;;;;;4930087;29;20207;-77
2021/11/21 12:51:29;;;;;;;23.90;13.83;;;;;;;;;;4941915;28;20303;-77
2021/11/21 12:54:35;;;;;;;21.43;13.23;;;;;;;;;;4951462;29;20202;-77
2021/11/21 12:57:49;;;;;;;21.07;12.33;;;;;;;;;;4932881;29;20207;-76
2021/11/21 13:00:57;;;;;;;20.53;12.90;;;;;;;;;;4930893;28;20219;-77
2021/11/21 13:04:01;;;;;;;20.23;11.70;;;;;;;;;;4949040;29;20598;-78
2021/11/21 13:07:30;;;;;;;18.20;11.23;;;;;;;;;;4944263;29;20226;-76
2021/11/21 13:10:38;;;;;;;17.97;11.73;;;;;;;;;;4951414;29;20198;-76
2021/11/21 13:13:48;;;;;;;21.77;12.43;;;;;;;;;;4933591;29;20212;-77
2021/11/21 13:16:53;;;;;;;21.27;12.63;;;;;;;;;;4952401;29;20564;-77
2021/11/21 13:20:07;;;;;;;20.87;11.87;;;;;;;;;;4951104;29;20204;-77
2021/11/21 13:23:17;;;;;;;25.20;13.80;;;;;;;;;;4955002;29;20209;-77
2021/11/21 13:26:23;;;;;;;23.47;14.33;;;;;;;;;;4983668;23;20604;-72
2021/11/21 13:29:27;;;;;;;23.30;14.20;;;;;;;;;;4981967;28;20186;-72
2021/11/21 13:32:31;;;;;;;90.03;39.63;;;;;;;;;;4993472;28;20615;-72
2021/11/21 13:35:35;;;;;;;130.33;49.83;;;;;;;;;;4993638;28;20191;-72
2021/11/21 13:38:42;;;;;;;76.47;34.40;;;;;;;;;;4970643;28;20181;-72
2021/11/21 13:42:01;;;;;;;36.77;21.83;;;;;;;;;;4993499;28;20214;-73
2021/11/21 13:45:06;;;;;;;32.43;20.83;;;;;;;;;;4993795;28;20186;-72
2021/11/21 13:48:36;;;;;;;41.30;23.67;;;;;;;;;;4981465;28;20225;-72
2021/11/21 13:51:40;;;;;;;21.77;14.03;;;;;;;;;;4993362;28;20711;-72
2021/11/21 13:54:48;;;;;;;16.70;11.83;;;;;;;;;;4989776;28;20618;-72
2021/11/21 13:57:54;;;;;;;18.90;12.07;;;;;;;;;;4981529;28;20236;-72
2021/11/21 14:01:23;;;;;;;21.43;14.83;;;;;;;;;;4993360;28;20224;-74
2021/11/21 14:04:37;;;;;;;20.03;13.37;;;;;;;;;;4993374;28;20198;-74
2021/11/21 14:07:56;;;;;;;34.27;16.27;;;;;;;;;;4993263;28;20225;-74
2021/11/21 14:11:06;;;;;;;19.17;12.23;;;;;;;;;;4981293;28;20580;-74
2021/11/21 14:14:16;;;;;;;16.63;9.97;;;;;;;;;;4993165;28;20199;-74
2021/11/21 14:17:26;;;;;;;14.67;9.23;;;;;;;;;;4980652;28;20183;-74
2021/11/21 14:20:43;;;;;;;14.40;9.77;;;;;;;;;;4993153;28;20186;-75
2021/11/21 14:23:49;;;;;;;16.87;10.00;;;;;;;;;;4981192;28;20191;-75
2021/11/21 14:27:05;;;;;;;15.77;10.43;;;;;;;;;;4992946;28;20286;-74
2021/11/21 14:30:10;;;;;;;17.73;11.90;;;;;;;;;;4980811;28;20616;-73
2021/11/21 14:33:18;;;;;;;20.03;12.27;;;;;;;;;;4992907;28;20201;-73
2021/11/21 14:36:25;;;;;;;17.53;9.90;;;;;;;;;;4992809;28;20943;-73
2021/11/21 14:39:30;;;;;;;21.50;15.73;;;;;;;;;;4992797;28;20178;-72
2021/11/21 14:42:34;;;;;;;14.10;9.70;;;;;;;;;;4992330;28;20217;-72
2021/11/21 14:45:38;;;;;;;15.30;10.13;;;;;;;;;;4992769;28;20194;-73
2021/11/21 14:48:51;;;;;;;21.40;11.43;;;;;;;;;;4992496;28;20217;-72
2021/11/21 14:51:55;;;;;;;14.70;9.43;;;;;;;;;;4992390;28;20239;-73
2021/11/21 14:55:05;;;;;;;17.07;8.90;;;;;;;;;;4980026;28;20620;-73
2021/11/21 14:58:19;;;;;;;17.43;11.37;;;;;;;;;;4980347;28;20901;-73
2021/11/21 15:01:35;;;;;;;14.77;8.57;;;;;;;;;;4962270;28;20229;-73
2021/11/21 15:04:39;;;;;;;28.20;13.03;;;;;;;;;;4962159;28;20619;-73
2021/11/21 15:07:43;;;;;;;14.80;8.83;;;;;;;;;;4959734;28;20660;-74
2021/11/21 15:10:48;;;;;;;14.13;9.40;;;;;;;;;;4961910;28;20226;-74
2021/11/21 15:13:53;;;;;;;17.30;9.43;;;;;;;;;;4960855;28;20187;-74
2021/11/21 15:16:57;;;;;;;15.60;9.87;;;;;;;;;;4965107;28;20206;-74
2021/11/21 15:20:06;;;;;;;15.97;9.30;;;;;;;;;;4973582;28;20669;-73
2021/11/21 15:23:10;;;;;;;18.20;9.67;;;;;;;;;;4960667;28;20187;-74
2021/11/21 15:26:17;;;;;;;16.17;9.80;;;;;;;;;;4960963;28;20210;-74
2021/11/21 15:29:21;;;;;;;17.73;10.77;;;;;;;;;;4973580;28;20206;-74
2021/11/21 15:32:26;;;;;;;37.43;22.03;;;;;;;;;;4960293;28;21016;-73
2021/11/21 15:35:30;;;;;;;19.63;10.87;;;;;;;;;;4972652;28;20238;-74
2021/11/21 15:38:35;;;;;;;16.97;9.37;;;;;;;;;;4985401;28;20604;-73
2021/11/21 15:41:39;;;;;;;12.30;8.47;;;;;;;;;;4976706;28;20225;-73
2021/11/21 15:44:43;;;;;;;16.27;9.23;;;;;;;;;;4991592;28;20186;-74
2021/11/21 15:47:49;;;;;;;12.93;8.17;;;;;;;;;;4984591;28;20642;-75
2021/11/21 15:50:54;;;;;;;15.23;9.17;;;;;;;;;;4972744;28;20689;-76
2021/11/21 15:53:58;;;;;;;14.17;8.07;;;;;;;;;;4959817;28;20571;-76
2021/11/21 15:57:03;;;;;;;14.57;8.33;;;;;;;;;;4972191;28;20191;-75
2021/11/21 16:00:09;;;;;;;15.43;9.27;;;;;;;;;;4969236;28;20194;-75
2021/11/21 16:03:17;;;;;;;16.57;8.83;;;;;;;;;;4948818;28;20195;-75
2021/11/21 16:06:22;;;;;;;14.33;8.87;;;;;;;;;;4959388;28;20610;-74
2021/11/21 16:09:26;;;;;;;12.73;8.43;;;;;;;;;;4955735;28;20677;-75
2021/11/21 16:12:30;;;;;;;14.40;9.40;;;;;;;;;;4976139;28;20219;-75
2021/11/21 16:15:34;;;;;;;18.00;11.87;;;;;;;;;;4959617;28;20191;-75
2021/11/21 16:18:39;;;;;;;17.40;10.90;;;;;;;;;;4964128;28;20193;-75
2021/11/21 16:21:44;;;;;;;13.13;9.00;;;;;;;;;;4967334;28;20224;-75
2021/11/21 16:24:48;;;;;;;15.70;8.70;;;;;;;;;;4987129;28;20206;-75
2021/11/21 16:27:52;;;;;;;13.90;8.63;;;;;;;;;;4972346;28;20195;-75
2021/11/21 16:30:57;;;;;;;15.90;9.50;;;;;;;;;;4989685;28;20229;-74
2021/11/21 16:34:01;;;;;;;14.63;9.30;;;;;;;;;;4990660;28;20178;-75
2021/11/21 16:37:05;;;;;;;14.83;9.40;;;;;;;;;;4977381;28;20193;-76
2021/11/21 16:40:13;;;;;;;14.63;9.30;;;;;;;;;;4990674;28;20518;-75
2021/11/21 16:43:17;;;;;;;16.07;9.77;;;;;;;;;;4985030;28;20197;-76
2021/11/21 16:46:23;;;;;;;37.87;22.17;;;;;;;;;;4978115;28;20666;-75
2021/11/21 16:49:30;;;;;;;41.27;23.27;;;;;;;;;;4977781;28;20643;-76
2021/11/21 16:52:34;;;;;;;21.47;13.03;;;;;;;;;;4990291;28;20609;-75
2021/11/21 16:55:42;;;;;;;29.13;17.47;;;;;;;;;;4990441;28;20557;-75
2021/11/21 16:58:47;;;;;;;17.60;11.50;;;;;;;;;;4959183;28;20551;-73
2021/11/21 17:01:51;;;;;;;16.20;9.40;;;;;;;;;;4959065;28;20227;-74
2021/11/21 17:04:55;;;;;;;18.53;10.27;;;;;;;;;;4958926;28;20183;-73
2021/11/21 17:08:00;;;;;;;15.77;9.80;;;;;;;;;;4986826;28;20266;-74
2021/11/21 17:11:05;;;;;;;22.50;14.50;;;;;;;;;;4990207;28;20625;-73
2021/11/21 17:14:09;;;;;;;22.50;13.63;;;;;;;;;;4977649;28;20604;-74
2021/11/21 17:17:13;;;;;;;18.37;9.97;;;;;;;;;;4967396;28;20608;-73
2021/11/21 17:20:22;;;;;;;17.77;9.30;;;;;;;;;;4962146;28;20594;-74
2021/11/21 17:23:26;;;;;;;15.53;9.63;;;;;;;;;;4958904;28;20566;-74
2021/11/21 17:26:31;;;;;;;26.87;15.13;;;;;;;;;;4974788;28;20553;-73
2021/11/21 17:29:36;;;;;;;16.37;10.37;;;;;;;;;;4969821;28;20665;-74
2021/11/21 17:32:41;;;;;;;16.33;9.33;;;;;;;;;;4985434;28;20240;-74
2021/11/21 17:35:45;;;;;;;16.97;9.53;;;;;;;;;;4980424;28;20609;-74
2021/11/21 17:38:49;;;;;;;15.37;8.80;;;;;;;;;;4982237;28;20561;-74
2021/11/21 17:41:54;;;;;;;14.27;8.73;;;;;;;;;;4966008;28;20573;-73
2021/11/21 17:44:58;;;;;;;16.97;9.97;;;;;;;;;;4975296;28;20209;-73
2021/11/21 17:48:06;;;;;;;16.10;10.10;;;;;;;;;;4989463;28;20202;-74
2021/11/21 17:51:10;;;;;;;16.50;8.87;;;;;;;;;;4974062;28;20625;-73
2021/11/21 17:54:14;;;;;;;16.83;10.03;;;;;;;;;;4973719;28;20558;-73
2021/11/21 17:57:18;;;;;;;16.50;10.03;;;;;;;;;;4975368;28;20201;-74
2021/11/21 18:00:25;;;;;;;18.27;11.07;;;;;;;;;;4982480;28;20186;-75
2021/11/21 18:03:30;;;;;;;22.90;12.13;;;;;;;;;;4981297;28;20182;-75
2021/11/21 18:06:34;;;;;;;23.30;13.67;;;;;;;;;;4993292;28;20549;-75